• Join FlightAware (Why Join?)
  • Login
  • US Flag 
Rudolph Flight #1: Scheduled 
07:29PM EST


 

Airport Tracker/Info


-or-


 

Live Flight TrackerFlight Track Log ✈ N589H ✈ 19-Mar-2014 ✈ KSRQ - CYXU

Flight Track Log - Related Links

Times and Time Zones

All times are in EDT time to prevent confusion due to time zone crossing. See the N589H flight status page for this flight to view local times or setup timezone preferences in your user account.

Time Position Orientation Groundspeed Altitude Reporting Facility
EDT Latitude Longitude Course Direction KTS MPH feet Rate Location/Type
10:07AM 27.3833 -82.5500 164° South 134 154 400  Level Tampa TRACON
10:08AM 27.3333 -82.5333 164° South 205 236 1,900 1,440 Climbing Tampa TRACON
10:09AM 27.3000 -82.5667 222° Southwest 209 241 3,600 1,920 Climbing Tampa TRACON
10:10AM 27.3500 -82.6167 318° Northwest 192 221 5,800 2,040 Climbing Tampa TRACON
10:11AM 27.3833 -82.6500 318° Northwest 194 223 7,600 2,040 Climbing Tampa TRACON
10:12AM 27.4333 -82.6833 329° Northwest 221 254 9,700 1,740 Climbing Tampa TRACON
10:13AM 27.5264 -82.7106 345° North 215 247 12,600 1,680 Climbing Miami Center
10:14AM 27.5883 -82.7275 346° North 220 253 14,500 1,980 Climbing Miami Center
10:15AM 27.6503 -82.7403 350° North 220 253 16,600 1,740 Climbing Miami Center
10:16AM 27.7167 -82.7531 350° North 225 259 18,000 660 Climbing Miami Center
10:17AM 27.7931 -82.7686 350° North 248 285 18,000 600 Level Miami Center
10:20AM 27.9831 -82.8172 347° North 284 327 20,000 960 Climbing Jacksonville Center
10:21AM 28.0644 -82.8361 348° North 290 334 21,300 1,320 Climbing Jacksonville Center
10:22AM 28.1394 -82.8503 351° North 290 334 22,700 1,320 Climbing Jacksonville Center
10:23AM 28.2189 -82.8408 North 280 322 24,000 1,380 Climbing Jacksonville Center
10:24AM 28.2961 -82.8314 North 274 315 25,500 960 Climbing Jacksonville Center
10:25AM 28.3775 -82.8194 North 280 322 26,000 780 Climbing Jacksonville Center
10:26AM 28.4608 -82.8075 North 292 336 27,100 1,140 Climbing Jacksonville Center
10:27AM 28.5400 -82.8006 North 292 336 28,300 1,200 Climbing Jacksonville Center
10:28AM 28.6172 -82.7886 North 287 330 29,500 840 Climbing Jacksonville Center
10:29AM 28.6778 -82.7836 North 277 319 30,000 240 Climbing Jacksonville Center
10:30AM 28.7697 -82.7694 North 283 326 30,000  Level Jacksonville Center
10:31AM 28.8572 -82.7597 North 296 341 30,000  Level Jacksonville Center
10:32AM 28.9492 -82.7478 North 316 364 30,000  Level Jacksonville Center
10:33AM 29.0431 -82.7358 North 321 369 30,000  Level Jacksonville Center
10:34AM 29.1350 -82.7239 North 331 381 30,000  Level Jacksonville Center
10:35AM 29.2289 -82.7117 North 331 381 30,000  Level Jacksonville Center
10:36AM 29.3269 -82.6997 North 331 381 30,000  Level Jacksonville Center
10:37AM 29.4208 -82.6900 North 331 381 30,000 120 Level Jacksonville Center
10:38AM 29.5169 -82.6778 North 336 387 30,300 480 Climbing Jacksonville Center
10:39AM 29.6128 -82.6681 North 341 392 31,000 300 Climbing Jacksonville Center
10:40AM 29.7131 -82.6533 North 328 377 31,000  Level Jacksonville Center
10:41AM 29.8069 -82.6436 North 333 383 31,000  Level Jacksonville Center
10:42AM 29.8906 -82.6292 North 333 383 31,000  Level Jacksonville Center
10:43AM 29.9864 -82.6167 North 338 389 31,000  Level Jacksonville Center
10:44AM 30.0928 -82.6069 North 338 389 31,000  Level Jacksonville Center
10:45AM 30.1911 -82.5922 North 344 396 31,000  Level Jacksonville Center
10:46AM 30.2869 -82.5822 North 349 402 31,000  Level Jacksonville Center
10:47AM 30.3850 -82.5700 North 349 402 31,000  Level Jacksonville Center
10:48AM 30.4811 -82.5575 North 349 402 31,000  Level Jacksonville Center
10:49AM 30.5772 -82.5475 North 349 402 31,000  Level Jacksonville Center
10:50AM 30.6753 -82.5375 North 349 402 31,000  Level Jacksonville Center
10:51AM 30.7756 -82.5300 North 349 402 31,000  Level Jacksonville Center
10:52AM 30.8714 -82.5197 North 349 402 31,000  Level Jacksonville Center
10:53AM 30.9675 -82.5097 North 349 402 31,000  Level Jacksonville Center
10:54AM 31.0656 -82.5044 North 349 402 31,000  Level Jacksonville Center
10:55AM 31.1617 -82.4944 North 349 402 31,000  Level Jacksonville Center
10:56AM 31.2597 -82.4819 North 349 402 31,000  Level Jacksonville Center
10:57AM 31.3578 -82.4742 North 349 402 31,000  Level Jacksonville Center
10:58AM 31.4475 -82.4617 North 349 402 31,000  Level Jacksonville Center
10:59AM 31.5478 -82.4539 North 349 402 31,000  Level Jacksonville Center
11:00AM 31.7236 -82.4372 North 357 411 31,000  Level Atlanta Center
11:01AM 31.8236 -82.4281 North 357 411 31,000  Level Atlanta Center
11:02AM 31.9239 -82.4189 North 357 411 31,000  Level Atlanta Center
11:03AM 32.0217 -82.4097 North 352 405 31,000  Level Atlanta Center
11:04AM 32.1197 -82.3983 North 352 405 31,000  Level Atlanta Center
11:05AM 32.2219 -82.3914 North 347 399 31,000  Level Atlanta Center
11:06AM 32.3094 -82.3725 10° North 347 399 31,000  Level Atlanta Center
11:07AM 32.4072 -82.3683 North 347 399 31,000  Level Atlanta Center
11:08AM 32.5075 -82.3589 North 352 405 31,000  Level Atlanta Center
11:09AM 32.6075 -82.3472 North 352 405 31,000  Level Atlanta Center
11:10AM 32.7075 -82.3406 North 352 405 31,000  Level Atlanta Center
11:11AM 32.8075 -82.3311 North 352 405 31,000  Level Atlanta Center
11:12AM 32.9056 -82.3192 North 352 405 31,000  Level Atlanta Center
11:13AM 33.0078 -82.3072 North 352 405 31,000  Level Atlanta Center
11:14AM 33.1056 -82.3006 North 352 405 31,000  Level Atlanta Center
11:15AM 33.2078 -82.2886 North 357 411 31,000  Level Atlanta Center
11:16AM 33.3078 -82.2789 North 357 411 31,000  Level Atlanta Center
11:17AM 33.4078 -82.2694 North 357 411 31,000  Level Atlanta Center
11:18AM 33.5078 -82.2575 North 357 411 31,000  Level Atlanta Center
11:19AM 33.6206 -82.2453 North 366 421 31,000  Level Atlanta Center
11:20AM 33.7225 -82.2331 North 366 421 31,000  Level Atlanta Center
11:21AM 33.8247 -82.2233 North 366 421 31,000  Level Atlanta Center
11:22AM 33.9247 -82.2136 North 366 421 31,000  Level Atlanta Center
11:23AM 34.0269 -82.2067 North 366 421 31,000  Level Atlanta Center
11:24AM 34.1289 -82.1944 North 366 421 31,000  Level Atlanta Center
11:25AM 34.2311 -82.1844 North 366 421 31,000  Level Atlanta Center
11:26AM 34.3311 -82.1722 North 366 421 31,000  Level Atlanta Center
11:27AM 34.4331 -82.1625 North 366 421 31,000  Level Atlanta Center
11:28AM 34.5375 -82.1525 North 366 421 31,000  Level Atlanta Center
11:29AM 34.6292 -82.1431 North 366 421 31,000  Level Atlanta Center
11:30AM 34.7311 -82.1306 North 366 421 31,000  Level Atlanta Center
11:31AM 34.8333 -82.1231 North 366 421 31,000  Level Atlanta Center
11:32AM 34.9417 -82.1156 North 366 421 31,000  Level Atlanta Center
11:33AM 35.0417 -82.1006 North 366 421 31,000  Level Atlanta Center
11:34AM 35.1436 -82.0906 North 366 421 31,000  Level Atlanta Center
11:35AM 35.2458 -82.0806 North 366 421 31,000  Level Atlanta Center
11:36AM 35.3478 -82.0681 North 366 421 31,000  Level Atlanta Center
11:37AM 35.4497 -82.0578 North 366 421 31,000  Level Atlanta Center
11:38AM 35.5519 -82.0478 North 366 421 31,000  Level Atlanta Center
11:39AM 35.6539 -82.0350 North 366 421 31,000  Level Atlanta Center
11:40AM 35.7497 -82.0250 North 366 421 31,000  Level Atlanta Center
11:41AM 35.8558 -82.0122 North 366 421 31,000  Level Atlanta Center
11:42AM 35.9558 -81.9994 North 366 421 31,000  Level Atlanta Center
11:43AM 36.0558 -81.9892 North 366 421 31,000  Level Atlanta Center
11:44AM 36.1578 -81.9789 North 366 421 31,000  Level Atlanta Center
11:45AM 36.2619 -81.9683 North 371 427 31,000  Level Atlanta Center
11:46AM 36.3639 -81.9581 North 366 421 31,000  Level Atlanta Center
11:47AM 36.3582 -81.9599 North  Level FlightAware Approximate
11:47AM 36.4658 -81.9425 North 366 421 31,000  Level Atlanta Center
11:48AM 36.5700 -81.9319 North 366 421 31,000  Level Atlanta Center
11:50AM 36.7831 -81.9097 North 375 432 31,000  Level Indianapolis Center
11:51AM 36.8875 -81.8981 North 376 433 31,000  Level Indianapolis Center
11:53AM 36.9908 -81.8864 North 375 432 31,000  Level Indianapolis Center
11:54AM 37.1133 -81.8742 North 376 433 31,000  Level Indianapolis Center
11:55AM 37.2194 -81.8622 North 380 437 31,000  Level Indianapolis Center
11:56AM 37.3256 -81.8500 North 381 438 31,000  Level Indianapolis Center
11:57AM 37.4322 -81.8394 North 381 438 31,000  Level Indianapolis Center
11:58AM 37.5353 -81.8239 North 380 437 31,000  Level Indianapolis Center
11:59AM 37.6406 -81.8131 North 379 436 31,000  Level Indianapolis Center
12:00PM 37.7450 -81.8008 North 379 436 31,000  Level Indianapolis Center
12:01PM 37.8583 -81.7894 North 380 437 31,000  Level Indianapolis Center
12:02PM 37.9628 -81.7778 North 380 437 31,000  Level Indianapolis Center
12:03PM 38.0686 -81.7650 North 380 437 31,000  Level Indianapolis Center
12:04PM 38.1756 -81.7533 North 380 437 31,000  Level Indianapolis Center
12:05PM 38.3044 -81.7381 North 383 441 31,000  Level Indianapolis Center
12:06PM 38.4106 -81.7258 North 383 441 31,000  Level Indianapolis Center
12:07PM 38.5167 -81.7128 North 383 441 31,000  Level Indianapolis Center
12:08PM 38.6233 -81.7003 North 382 440 31,000  Level Indianapolis Center
12:09PM 38.7314 -81.6878 North 382 440 31,000  Level Indianapolis Center
12:10PM 38.8392 -81.6744 North 382 440 31,000  Level Indianapolis Center
12:11PM 38.9469 -81.6622 North 382 440 31,000  Level Indianapolis Center
12:12PM 39.0539 -81.6503 North 383 441 31,000  Level Indianapolis Center
12:13PM 39.1611 -81.6375 North 383 441 31,000  Level Indianapolis Center
12:14PM 39.2675 -81.6256 North 383 441 31,000  Level Indianapolis Center
12:15PM 39.3744 -81.6128 North 383 441 31,000  Level Indianapolis Center
12:16PM 39.4825 -81.5997 North 385 443 31,000  Level Indianapolis Center
12:17PM 39.5900 -81.5864 North 386 444 31,000  Level Indianapolis Center
12:18PM 39.7072 -81.5733 North 388 447 31,000  Level Indianapolis Center
12:19PM 39.8156 -81.5608 North 389 448 31,000  Level Indianapolis Center
12:20PM 39.9264 -81.5464 North 395 455 31,000  Level Indianapolis Center
12:21PM 40.0511 -81.5311 North 403 464 31,000  Level Indianapolis Center
12:22PM 40.1631 -81.5181 North 404 465 31,000  Level Indianapolis Center
12:23PM 40.2758 -81.5053 North 404 465 31,000  Level Indianapolis Center
12:24PM 40.3894 -81.4911 North 404 465 31,000  Level Indianapolis Center
12:25PM 40.5006 -81.4781 North 403 464 31,000  Level Indianapolis Center
12:26PM 40.6119 -81.4619 North 401 461 31,000  Level Indianapolis Center
12:27PM 40.7425 -81.4475 North 401 461 31,000  Level Indianapolis Center
12:28PM 40.8547 -81.4336 North 401 461 31,000  Level Indianapolis Center
12:29PM 40.9664 -81.4056 11° North 405 466 31,000  Level Indianapolis Center
12:30PM 41.0792 -81.3658 15° North 415 478 31,000  Level Indianapolis Center
12:31PM 41.1881 -81.3536 North 400 460 31,000  Level Indianapolis Center
12:32PM 41.2972 -81.3456 North 395 455 31,000 -420 Level Indianapolis Center
12:34PM 41.4622 -81.3264 North 398 458 30,100 -1,200 Descending Cleveland Center
12:35PM 41.5775 -81.3133 North 411 473 28,100 -1,980 Descending Cleveland Center
12:36PM 41.6919 -81.3022 North 411 473 26,100 -1,860 Descending Cleveland Center
12:37PM 41.8092 -81.2886 North 418 481 24,300 -1,020 Descending Cleveland Center
12:38PM 41.9242 -81.2772 North 414 476 24,000 -180 Descending Cleveland Center
12:39PM 42.0378 -81.2647 North 408 470 24,000 -1,260 Level Cleveland Center
12:40PM 42.1725 -81.2497 North 414 476 21,500 -2,280 Descending Cleveland Center
12:41PM 42.2881 -81.2358 North 414 476 19,300 -2,100 Descending Cleveland Center
12:42PM 42.3944 -81.2261 North 384 442 17,200 -2,100 Descending Cleveland Center
12:43PM 42.4936 -81.2136 North 359 413 15,000 -2,040 Descending Cleveland Center
12:44PM 42.5878 -81.2025 North 344 396 13,000 -1,980 Descending Cleveland Center
12:45PM 42.6744 -81.2064 358° North 313 360 11,000 -1,980 Descending Cleveland Center
12:47PM 42.8000 -81.2500 346° North 270 311 7,400 -1,920 Descending Toronto Center
12:48PM 42.8667 -81.3000 331° Northwest 270 311 5,600 -1,500 Descending Toronto Center
12:49PM 42.9333 -81.3167 350° North 260 299 4,500 -840 Descending Toronto Center
12:50PM 43.0000 -81.3500 340° North 250 288 4,000 -600 Descending Toronto Center
12:51PM 43.0833 -81.3500 360° North 250 288 3,300 -540 Descending Toronto Center
12:52PM 43.1333 -81.3500 360° North 230 265 3,000 -180 Descending Toronto Center
12:53PM 43.1500 -81.2833 71° East 220 253 3,000  Level Toronto Center
12:54PM 43.1000 -81.2333 144° Southeast 170 196 3,000 -300 Level Toronto Center
12:55PM 43.0833 -81.2000 124° Southeast 140 161 2,400 -660 Descending Toronto Center
12:56PM 43.0500 -81.1833 160° South 110 127 1,700 -660 Descending Toronto Center
12:57PM 43.0333 -81.1667 144° Southeast 120 138 1,100 -420 Descending Toronto Center
12:58PM 43.0167 -81.1333 124° Southeast 50 58 900 -240 Descending Toronto Center